Time;durP1;ratioP1;P1;durP2;ratioP2;P2;SDS_P1;SDS_P2;PMS_P1;PMS_P2;Temp;Humidity;BMP_temperature;BMP_pressure;BME280_temperature;BME280_humidity;BME280_pressure;Samples;Min_cycle;Max_cycle;Signal;HPM_P1;HPM_P2
2022/08/27 00:01:16;;;;;;;;;;;;;;;;;;;;;
2022/08/27 00:04:21;;;;;;;25.15;13.68;;;22.50;99.90;;;;;;5766768;24;20099;-94
2022/08/27 00:07:40;;;;;;;22.08;13.90;;;22.50;99.90;;;;;;5767923;24;20108;-94
2022/08/27 00:44:56;;;;;;;21.92;14.30;;;22.30;99.90;;;;;;5874843;24;20085;-92
2022/08/27 01:05:43;;;;;;;22.73;13.98;;;22.00;99.90;;;;;;6140722;23;20022;-94
2022/08/27 03:08:14;;;;;;;26.23;13.80;;;21.70;99.90;;;;;;6161064;23;20032;-95
2022/08/27 03:35:46;;;;;;;27.83;15.85;;;21.70;99.90;;;;;;6159586;23;20029;-93
2022/08/27 03:38:44;;;;;;;30.30;15.73;;;21.80;99.90;;;;;;6130783;23;20010;-95
2022/08/27 04:03:20;;;;;;;22.40;14.82;;;21.70;99.90;;;;;;6154324;23;20045;-95
2022/08/27 04:06:03;;;;;;;24.77;14.25;;;21.60;99.90;;;;;;6140985;23;20009;-93
2022/08/27 04:08:57;;;;;;;24.98;14.15;;;21.60;99.90;;;;;;6136194;23;20006;-95
2022/08/27 04:11:37;;;;;;;25.10;15.35;;;21.50;99.90;;;;;;6134834;23;20010;-94
2022/08/27 04:14:28;;;;;;;27.10;15.80;;;21.60;99.90;;;;;;6136549;23;20001;-94
2022/08/27 04:17:19;;;;;;;;;;;21.60;99.90;;;;;;6135130;23;20084;-94
2022/08/27 04:20:00;;;;;;;30.27;16.25;;;21.60;99.90;;;;;;6114679;23;19905;-94
2022/08/27 04:22:50;;;;;;;25.80;14.65;;;21.70;99.90;;;;;;6132855;23;20013;-93
2022/08/27 04:25:17;;;;;;;28.92;14.05;;;21.80;99.90;;;;;;6135124;23;20033;-94
2022/08/27 04:27:58;;;;;;;27.50;17.15;;;21.80;99.90;;;;;;6133585;23;20423;-95
2022/08/27 04:30:55;;;;;;;27.48;15.05;;;21.90;99.90;;;;;;6134727;23;20006;-94
2022/08/27 04:33:30;;;;;;;26.45;15.55;;;22.00;99.90;;;;;;6135299;23;20017;-93
2022/08/27 04:36:29;;;;;;;;;;;;;;;;;;;;;
2022/08/27 04:39:38;;;;;;;27.60;15.48;;;21.90;99.90;;;;;;6098185;23;20085;-92
2022/08/27 04:42:19;;;;;;;23.58;13.27;;;21.90;99.90;;;;;;6063133;23;20015;-92
2022/08/27 04:45:01;;;;;;;26.40;15.20;;;22.00;99.90;;;;;;6051964;23;20057;-93
2022/08/27 04:47:56;;;;;;;27.83;16.10;;;22.00;99.90;;;;;;6073049;23;20006;-94
2022/08/27 04:50:38;;;;;;;26.70;15.25;;;22.10;99.90;;;;;;6074073;23;20014;-95
2022/08/27 04:53:30;;;;;;;25.48;16.50;;;22.20;99.90;;;;;;6075377;23;20003;-95
2022/08/27 04:56:38;;;;;;;22.45;13.52;;;22.30;99.90;;;;;;6078182;23;20054;-93
2022/08/27 04:59:23;;;;;;;22.38;13.57;;;22.40;99.90;;;;;;6097785;23;20436;-93
2022/08/27 05:02:22;;;;;;;29.10;15.43;;;22.70;99.90;;;;;;6050838;23;20095;-95
2022/08/27 05:16:08;;;;;;;28.23;20.75;;;26.20;99.90;;;;;;5978412;24;20029;-93
2022/08/27 06:15:56;;;;;;;23.45;20.55;;;32.50;99.90;;;;;;6156642;23;19924;-93
2022/08/27 06:29:40;;;;;;;20.20;18.20;;;32.60;99.90;;;;;;6161781;23;20032;-93
2022/08/27 06:33:34;;;;;;;;;;;;;;;;;;;;;
2022/08/27 06:38:02;;;;;;;19.90;18.10;;;32.90;99.90;;;;;;5823046;24;20015;-94
2022/08/27 06:52:20;;;;;;;20.15;18.35;;;32.40;99.90;;;;;;6044165;23;20394;-92
2022/08/27 06:55:06;;;;;;;19.83;17.67;;;32.70;99.90;;;;;;6044773;23;20014;-92
2022/08/27 06:57:42;;;;;;;19.42;17.55;;;32.20;99.90;;;;;;6021782;23;20047;-94
2022/08/27 07:00:28;;;;;;;18.88;17.13;;;32.70;99.90;;;;;;6028138;23;20039;-93
2022/08/27 07:03:04;;;;;;;17.95;16.65;;;32.50;99.90;;;;;;6024392;23;20383;-93
2022/08/27 07:05:56;;;;;;;21.00;16.77;;;32.70;99.90;;;;;;6023933;23;20015;-94
2022/08/27 07:08:30;;;;;;;18.08;16.52;;;33.10;99.90;;;;;;6015442;23;20034;-93
2022/08/27 07:46:09;;;;;;;17.83;16.10;;;33.10;99.90;;;;;;6160445;23;20048;-91
2022/08/27 07:48:37;;;;;;;17.67;16.30;;;33.20;99.90;;;;;;6111437;23;20049;-91
2022/08/27 08:15:27;;;;;;;17.48;16.13;;;33.60;99.90;;;;;;6163978;23;20041;-93
2022/08/27 08:18:06;;;;;;;17.85;16.45;;;34.00;99.90;;;;;;6128512;23;20431;-93
2022/08/27 08:23:56;;;;;;;18.15;16.75;;;34.10;99.90;;;;;;6034083;23;20019;-93
2022/08/27 08:27:00;;;;;;;17.80;16.38;;;34.30;99.90;;;;;;6006945;23;20020;-92
2022/08/27 08:30:01;;;;;;;17.67;16.25;;;34.50;99.90;;;;;;6056293;23;20060;-92
2022/08/27 08:32:33;;;;;;;18.08;16.83;;;34.00;99.90;;;;;;5950307;24;20020;-94
2022/08/27 09:22:17;;;;;;;17.33;15.63;;;33.60;99.90;;;;;;6211483;22;20021;-93
2022/08/27 09:25:59;;;;;;;;;;;;;;;;;;;;;
2022/08/27 09:29:37;;;;;;;16.85;15.07;;;32.70;99.90;;;;;;6156481;23;20032;-94
2022/08/27 10:19:38;;;;;;;17.10;15.88;;;33.00;99.90;;;;;;6189576;23;20025;-93
2022/08/27 11:55:19;;;;;;;18.90;16.95;;;32.40;99.90;;;;;;6151141;23;20052;-92
2022/08/27 11:57:47;;;;;;;18.83;17.05;;;32.30;99.90;;;;;;6109058;23;20087;-94
2022/08/27 12:00:44;;;;;;;18.90;16.05;;;31.90;99.90;;;;;;6112881;23;20001;-93
2022/08/27 12:03:35;;;;;;;19.00;17.30;;;31.90;99.90;;;;;;6076822;23;20014;-94
2022/08/27 12:06:17;;;;;;;17.98;16.35;;;31.70;99.90;;;;;;6081513;23;20388;-91
2022/08/27 12:08:46;;;;;;;18.63;16.98;;;31.90;99.90;;;;;;6081158;23;20010;-94
2022/08/27 12:11:49;;;;;;;18.13;16.25;;;32.00;99.90;;;;;;6078965;23;20006;-95
2022/08/27 12:14:43;;;;;;;18.38;16.73;;;31.90;99.90;;;;;;6076651;23;20010;-91
2022/08/27 12:17:38;;;;;;;18.35;16.77;;;31.60;99.90;;;;;;6081508;23;20018;-93
2022/08/27 12:20:24;;;;;;;18.27;16.77;;;31.40;99.90;;;;;;6081928;23;20006;-91
2022/08/27 12:23:42;;;;;;;17.65;16.23;;;31.00;99.90;;;;;;6084577;23;20097;-91
2022/08/27 12:26:42;;;;;;;18.67;16.85;;;30.90;99.90;;;;;;6101534;23;20170;-93
2022/08/27 12:29:28;;;;;;;18.30;16.48;;;31.50;99.90;;;;;;6091406;23;20010;-94
2022/08/27 12:32:14;;;;;;;17.67;16.08;;;31.90;99.90;;;;;;6081806;23;20010;-94
2022/08/27 12:34:51;;;;;;;17.92;16.50;;;31.80;99.90;;;;;;6126156;23;20015;-95
2022/08/27 12:37:26;;;;;;;18.52;16.88;;;32.10;99.90;;;;;;6138758;23;20048;-93
2022/08/27 12:40:47;;;;;;;18.67;17.10;;;31.80;99.90;;;;;;6146169;23;20456;-95
2022/08/27 12:44:00;;;;;;;18.75;17.00;;;31.90;99.90;;;;;;6057970;23;20007;-93
2022/08/27 13:08:37;;;;;;;17.73;16.23;;;31.10;99.90;;;;;;6171716;23;20032;-93
2022/08/27 13:11:18;;;;;;;17.45;15.93;;;30.80;99.90;;;;;;6084449;23;20048;-93
2022/08/27 13:13:46;;;;;;;17.52;15.77;;;30.70;99.90;;;;;;6088031;23;20066;-94
2022/08/27 15:51:57;;;;;;;16.83;15.40;;;29.30;99.90;;;;;;6141418;23;20029;-94
2022/08/27 15:54:37;;;;;;;15.38;13.82;;;29.20;99.90;;;;;;6174064;23;20084;-95
2022/08/27 15:57:07;;;;;;;16.40;14.82;;;29.10;99.90;;;;;;6138959;23;20013;-93
2022/08/27 15:59:34;;;;;;;16.88;15.18;;;29.10;99.90;;;;;;6140265;23;20560;-93
2022/08/27 16:02:02;;;;;;;17.38;15.40;;;29.00;99.90;;;;;;6137046;23;20372;-95
2022/08/27 16:04:28;;;;;;;15.32;13.65;;;28.80;99.90;;;;;;6158649;23;20001;-95
2022/08/27 16:06:58;;;;;;;14.90;13.40;;;28.80;99.90;;;;;;6133958;23;20017;-93
2022/08/27 16:09:25;;;;;;;15.77;14.20;;;28.60;99.90;;;;;;6133554;23;20015;-96
2022/08/27 16:11:53;;;;;;;16.27;14.77;;;28.60;99.90;;;;;;6135196;23;20009;-93
2022/08/27 16:14:22;;;;;;;17.38;15.73;;;28.60;99.90;;;;;;6162479;23;20013;-96
2022/08/27 16:17:40;;;;;;;17.63;16.20;;;28.60;99.90;;;;;;6141098;23;19993;-95
2022/08/27 16:26:25;;;;;;;;;;;;;;;;;;;;;
2022/08/27 16:29:55;;;;;;;14.35;12.40;;;28.60;99.90;;;;;;6048944;23;20167;-92
2022/08/27 16:33:33;;;;;;;;;;;;;;;;;;;;;
2022/08/27 16:36:30;;;;;;;;;;;;;;;;;;;;;
2022/08/27 16:39:25;;;;;;;14.05;12.60;;;28.20;99.90;;;;;;5880071;24;20049;-92
2022/08/27 16:41:54;;;;;;;15.23;12.10;;;28.00;99.90;;;;;;5834040;24;20014;-91
2022/08/27 16:44:24;;;;;;;15.23;12.55;;;27.80;99.90;;;;;;5853460;24;20021;-90
2022/08/27 16:46:52;;;;;;;14.32;13.07;;;27.70;99.90;;;;;;5830074;24;20021;-91
2022/08/27 16:52:06;;;;;;;14.15;12.57;;;27.50;99.90;;;;;;5853768;24;20022;-88
2022/08/27 16:54:34;;;;;;;13.57;12.20;;;27.30;99.90;;;;;;5829083;24;20010;-84
2022/08/27 16:57:02;;;;;;;14.65;11.45;;;27.30;99.90;;;;;;5828969;24;20097;-89
2022/08/27 16:59:31;;;;;;;13.82;12.38;;;27.20;99.90;;;;;;5872828;24;20020;-89
2022/08/27 17:01:57;;;;;;;12.82;11.63;;;27.10;99.90;;;;;;5832691;24;20010;-89
2022/08/27 17:04:25;;;;;;;20.67;12.57;;;27.00;99.90;;;;;;5892982;23;20083;-90
2022/08/27 17:06:53;;;;;;;14.45;12.52;;;27.00;99.90;;;;;;5988094;23;20626;-90
2022/08/27 17:09:20;;;;;;;13.98;12.32;;;26.90;99.90;;;;;;6064477;23;20009;-90
2022/08/27 17:11:55;;;;;;;14.50;12.45;;;26.90;99.90;;;;;;6107446;23;20076;-86
2022/08/27 17:14:22;;;;;;;14.73;13.27;;;26.80;99.90;;;;;;6132238;23;20013;-89
2022/08/27 17:16:49;;;;;;;15.45;13.70;;;26.90;99.90;;;;;;6107560;23;20009;-87
2022/08/27 17:19:17;;;;;;;16.75;13.48;;;26.90;99.90;;;;;;6107626;23;20078;-90
2022/08/27 17:21:44;;;;;;;14.48;13.00;;;26.90;99.90;;;;;;6131788;23;20420;-88
2022/08/27 17:24:12;;;;;;;13.35;11.95;;;26.80;99.90;;;;;;6107563;23;20056;-90
2022/08/27 17:26:39;;;;;;;16.25;14.65;;;26.80;99.90;;;;;;6132331;23;20316;-92
2022/08/27 17:29:06;;;;;;;16.70;14.65;;;26.70;99.90;;;;;;6107504;23;20368;-90
2022/08/27 17:31:39;;;;;;;15.80;13.90;;;26.60;99.90;;;;;;6131736;23;20136;-92
2022/08/27 17:34:11;;;;;;;17.92;14.63;;;26.60;99.90;;;;;;6108478;23;20012;-92
2022/08/27 17:36:37;;;;;;;18.00;14.07;;;26.60;99.90;;;;;;6132198;23;20037;-90
2022/08/27 17:39:04;;;;;;;17.40;14.40;;;26.60;99.90;;;;;;6107415;23;20013;-91
2022/08/27 17:41:37;;;;;;;16.40;14.70;;;26.60;99.90;;;;;;6131373;23;20006;-91
2022/08/27 17:44:28;;;;;;;18.95;14.77;;;26.50;99.90;;;;;;6108591;23;20434;-90
2022/08/27 17:46:59;;;;;;;18.08;14.95;;;26.50;99.90;;;;;;6131647;23;20451;-87
2022/08/27 17:49:26;;;;;;;20.52;14.95;;;26.50;99.90;;;;;;6107309;23;20076;-88
2022/08/27 17:52:08;;;;;;;17.52;13.80;;;26.50;99.90;;;;;;6131331;23;20093;-89
2022/08/27 17:54:50;;;;;;;15.23;13.75;;;26.40;99.90;;;;;;6107472;23;20009;-87
2022/08/27 17:57:37;;;;;;;15.52;13.95;;;26.40;99.90;;;;;;6134254;23;20006;-88
2022/08/27 18:00:05;;;;;;;15.65;13.63;;;26.40;99.90;;;;;;6107031;23;20071;-87
2022/08/27 18:02:42;;;;;;;19.83;13.68;;;26.30;99.90;;;;;;6106868;23;20006;-88
2022/08/27 18:05:11;;;;;;;16.60;13.30;;;26.10;99.90;;;;;;6107066;23;20348;-87
2022/08/27 18:07:40;;;;;;;19.45;13.45;;;26.00;99.90;;;;;;6107874;23;20017;-90
2022/08/27 18:10:37;;;;;;;17.48;13.43;;;25.80;99.90;;;;;;6149148;23;20005;-93
2022/08/27 18:13:05;;;;;;;18.45;12.70;;;25.70;99.90;;;;;;6004421;23;20023;-94
2022/08/27 18:15:40;;;;;;;21.42;12.73;;;25.50;99.90;;;;;;5971565;23;20011;-93
2022/08/27 18:18:08;;;;;;;23.83;12.45;;;25.50;99.90;;;;;;5989214;23;20462;-95
2022/08/27 18:32:39;;;;;;;20.90;13.05;;;25.40;99.90;;;;;;6156536;23;20120;-92
2022/08/27 18:35:26;;;;;;;16.40;11.48;;;25.40;99.90;;;;;;6110073;23;20069;-92
2022/08/27 18:37:53;;;;;;;13.55;10.50;;;25.40;99.90;;;;;;6108073;23;20006;-93
2022/08/27 18:43:37;;;;;;;19.60;12.85;;;25.40;99.90;;;;;;6157292;23;20084;-95
2022/08/27 18:46:04;;;;;;;20.35;13.18;;;25.50;99.90;;;;;;6107536;23;20026;-91
2022/08/27 18:48:35;;;;;;;21.33;12.60;;;25.40;99.90;;;;;;6107233;23;20010;-91
2022/08/27 18:51:04;;;;;;;17.48;11.77;;;25.30;99.90;;;;;;6106296;23;20339;-91
2022/08/27 18:53:33;;;;;;;13.15;11.13;;;25.10;99.90;;;;;;6106424;23;20432;-92
2022/08/27 18:56:01;;;;;;;12.57;10.25;;;25.00;99.90;;;;;;6106851;23;20010;-91
2022/08/27 18:58:28;;;;;;;17.98;10.52;;;24.80;99.90;;;;;;6107517;23;20094;-92
2022/08/27 19:00:58;;;;;;;24.00;10.52;;;24.70;99.90;;;;;;6106612;23;20037;-91
2022/08/27 19:03:30;;;;;;;17.30;9.85;;;24.60;99.90;;;;;;6106660;23;20023;-93
2022/08/27 19:05:56;;;;;;;14.35;9.93;;;24.50;99.90;;;;;;6107617;23;20024;-92
2022/08/27 19:08:26;;;;;;;12.48;9.27;;;24.40;99.90;;;;;;6107808;23;20010;-92
2022/08/27 19:10:54;;;;;;;13.85;10.05;;;24.40;99.90;;;;;;6106858;23;20009;-92
2022/08/27 19:13:21;;;;;;;17.73;9.55;;;24.30;99.90;;;;;;6105973;23;20049;-93
2022/08/27 19:16:16;;;;;;;13.68;10.27;;;24.30;99.90;;;;;;6107082;23;20009;-91
2022/08/27 19:18:43;;;;;;;16.48;10.00;;;24.20;99.90;;;;;;6103767;23;20016;-95
2022/08/27 19:21:10;;;;;;;19.08;10.32;;;24.30;99.90;;;;;;6106721;23;20006;-91
2022/08/27 19:23:38;;;;;;;17.98;11.25;;;24.30;99.90;;;;;;6106464;23;20092;-92
2022/08/27 19:26:11;;;;;;;16.25;9.85;;;24.20;99.90;;;;;;6106382;23;20080;-91
2022/08/27 19:28:43;;;;;;;15.60;9.57;;;24.20;99.90;;;;;;6107081;23;20012;-92
2022/08/27 19:31:12;;;;;;;15.40;9.88;;;24.20;99.90;;;;;;6106484;23;20259;-92
2022/08/27 19:33:39;;;;;;;21.73;10.13;;;24.20;99.90;;;;;;6106619;23;20009;-92
2022/08/27 19:36:07;;;;;;;15.50;10.13;;;24.20;99.90;;;;;;6107210;23;20029;-94
2022/08/27 19:38:34;;;;;;;20.55;10.90;;;24.10;99.90;;;;;;6106455;23;20036;-93
2022/08/27 19:41:02;;;;;;;22.20;11.05;;;24.00;99.90;;;;;;6107119;23;20014;-91
2022/08/27 19:43:29;;;;;;;16.83;10.57;;;24.00;99.90;;;;;;6107225;23;20025;-91
2022/08/27 19:45:57;;;;;;;16.13;10.35;;;24.00;99.90;;;;;;6094381;23;20029;-92
2022/08/27 19:48:24;;;;;;;16.95;10.38;;;23.90;99.90;;;;;;6080655;23;20010;-92
2022/08/27 19:50:52;;;;;;;16.13;9.98;;;23.90;99.90;;;;;;6101405;23;20017;-92
2022/08/27 19:53:18;;;;;;;22.13;12.82;;;23.90;99.90;;;;;;6077533;23;20006;-92
2022/08/27 19:55:45;;;;;;;16.10;10.05;;;23.90;99.90;;;;;;6101559;23;20014;-92
2022/08/27 19:58:12;;;;;;;19.05;11.02;;;23.80;99.90;;;;;;6101723;23;20009;-92
2022/08/27 20:00:40;;;;;;;14.35;10.48;;;23.80;99.90;;;;;;6101291;23;20010;-92
2022/08/27 20:03:06;;;;;;;15.15;10.98;;;23.70;99.90;;;;;;6101514;23;20010;-92
2022/08/27 20:05:33;;;;;;;16.35;11.90;;;23.60;99.90;;;;;;6101375;23;20028;-91
2022/08/27 20:07:59;;;;;;;15.80;10.75;;;23.60;99.90;;;;;;6101958;23;20078;-91
2022/08/27 20:10:29;;;;;;;18.98;10.57;;;23.70;99.90;;;;;;6101351;23;20037;-93
2022/08/27 20:12:55;;;;;;;21.55;11.43;;;23.70;99.90;;;;;;6077878;23;20006;-92
2022/08/27 20:15:22;;;;;;;20.83;11.63;;;23.80;99.90;;;;;;6067927;23;20014;-92
2022/08/27 20:17:51;;;;;;;18.75;12.35;;;23.80;99.90;;;;;;6043157;23;20011;-93
2022/08/27 20:20:20;;;;;;;20.92;11.98;;;23.80;99.90;;;;;;6067438;23;20388;-94
2022/08/27 20:22:51;;;;;;;23.00;11.82;;;23.90;99.90;;;;;;6043002;23;20026;-94
2022/08/27 20:25:18;;;;;;;17.25;10.77;;;23.80;99.90;;;;;;6043402;23;20019;-91
2022/08/27 20:27:45;;;;;;;19.42;10.90;;;23.70;99.90;;;;;;6044832;23;20073;-94
2022/08/27 20:30:13;;;;;;;18.85;11.88;;;23.60;99.90;;;;;;6045446;23;20011;-93
2022/08/27 20:32:40;;;;;;;16.65;11.50;;;23.60;99.90;;;;;;6045160;23;20015;-93
2022/08/27 20:35:08;;;;;;;19.70;11.13;;;23.60;99.90;;;;;;6047051;23;20363;-93
2022/08/27 20:37:37;;;;;;;22.38;11.38;;;23.60;99.90;;;;;;6046072;23;20511;-93
2022/08/27 20:40:05;;;;;;;22.85;12.40;;;23.60;99.90;;;;;;6051983;23;20011;-91
2022/08/27 20:42:32;;;;;;;19.08;10.80;;;23.60;99.90;;;;;;6069836;23;20006;-93
2022/08/27 20:44:58;;;;;;;17.35;10.10;;;23.60;99.90;;;;;;6070951;23;19994;-93
2022/08/27 20:47:27;;;;;;;23.40;11.50;;;23.70;99.90;;;;;;6108888;23;20013;-92
2022/08/27 20:49:53;;;;;;;17.00;10.68;;;23.70;99.90;;;;;;6110027;23;20037;-92
2022/08/27 20:52:20;;;;;;;23.40;10.88;;;23.70;99.90;;;;;;6115962;23;20044;-94
2022/08/27 20:54:46;;;;;;;20.30;11.57;;;23.60;99.90;;;;;;6108721;23;20335;-92
2022/08/27 20:57:13;;;;;;;19.70;12.15;;;23.50;99.90;;;;;;6108098;23;20016;-92
2022/08/27 21:02:28;;;;;;;15.25;11.48;;;23.50;99.90;;;;;;6134321;23;20012;-91
2022/08/27 21:31:46;;;;;;;31.55;11.98;;;23.40;99.90;;;;;;6149712;23;20061;-95
2022/08/27 23:08:01;;;;;;;19.90;10.90;;;23.10;99.90;;;;;;6147353;23;20084;-93
